sensor_id;sensor_type;location;lat;lon;timestamp;pressure;altitude;pressure_sealevel;temperature;humidity
61769;BME280;47669;48.712;9.016;2022-11-20T00:00:41;96062.69;;;2.76;100.00
61769;BME280;47669;48.712;9.016;2022-11-20T00:03:06;96057.44;;;2.91;100.00
61769;BME280;47669;48.712;9.016;2022-11-20T00:05:32;96048.13;;;2.97;100.00
61769;BME280;47669;48.712;9.016;2022-11-20T00:07:58;96053.41;;;3.04;100.00
61769;BME280;47669;48.712;9.016;2022-11-20T00:10:23;96055.56;;;3.00;100.00
61769;BME280;47669;48.712;9.016;2022-11-20T00:12:48;96047.75;;;3.00;100.00
61769;BME280;47669;48.712;9.016;2022-11-20T00:15:13;96050.28;;;2.93;100.00
61769;BME280;47669;48.712;9.016;2022-11-20T00:17:38;96052.22;;;3.06;100.00
61769;BME280;47669;48.712;9.016;2022-11-20T00:20:04;96052.13;;;3.00;100.00
61769;BME280;47669;48.712;9.016;2022-11-20T00:22:29;96056.53;;;2.99;100.00
61769;BME280;47669;48.712;9.016;2022-11-20T00:24:54;96054.13;;;2.97;100.00
61769;BME280;47669;48.712;9.016;2022-11-20T00:27:19;96050.06;;;3.10;100.00
61769;BME280;47669;48.712;9.016;2022-11-20T00:29:45;96054.09;;;3.12;100.00
61769;BME280;47669;48.712;9.016;2022-11-20T00:32:10;96051.50;;;3.12;100.00
61769;BME280;47669;48.712;9.016;2022-11-20T00:34:35;96054.72;;;3.14;100.00
61769;BME280;47669;48.712;9.016;2022-11-20T00:37:00;96052.50;;;3.11;100.00
61769;BME280;47669;48.712;9.016;2022-11-20T00:39:25;96047.91;;;3.13;100.00
61769;BME280;47669;48.712;9.016;2022-11-20T00:41:51;96059.28;;;3.12;100.00
61769;BME280;47669;48.712;9.016;2022-11-20T00:44:16;96057.25;;;3.08;100.00
61769;BME280;47669;48.712;9.016;2022-11-20T00:46:41;96049.19;;;3.03;100.00
61769;BME280;47669;48.712;9.016;2022-11-20T00:49:06;96048.22;;;3.04;100.00
61769;BME280;47669;48.712;9.016;2022-11-20T00:51:31;96059.47;;;3.11;100.00
61769;BME280;47669;48.712;9.016;2022-11-20T00:53:57;96054.31;;;2.96;100.00
61769;BME280;47669;48.712;9.016;2022-11-20T00:56:22;96059.25;;;2.91;100.00
61769;BME280;47669;48.712;9.016;2022-11-20T00:58:48;96066.25;;;2.90;100.00
61769;BME280;47669;48.712;9.016;2022-11-20T01:01:14;96055.56;;;2.85;100.00
61769;BME280;47669;48.712;9.016;2022-11-20T01:03:42;96064.09;;;2.79;100.00
61769;BME280;47669;48.712;9.016;2022-11-20T01:06:17;96065.97;;;2.85;100.00
61769;BME280;47669;48.712;9.016;2022-11-20T01:08:43;96063.66;;;2.75;100.00
61769;BME280;47669;48.712;9.016;2022-11-20T01:11:09;96071.66;;;2.59;100.00
61769;BME280;47669;48.712;9.016;2022-11-20T01:13:35;96062.69;;;2.62;100.00
61769;BME280;47669;48.712;9.016;2022-11-20T01:16:08;96064.91;;;2.35;100.00
61769;BME280;47669;48.712;9.016;2022-11-20T01:18:34;96071.84;;;2.58;100.00
61769;BME280;47669;48.712;9.016;2022-11-20T01:21:04;96071.94;;;2.49;100.00
61769;BME280;47669;48.712;9.016;2022-11-20T01:23:31;96068.44;;;2.42;100.00
61769;BME280;47669;48.712;9.016;2022-11-20T01:25:56;96079.59;;;2.13;100.00
61769;BME280;47669;48.712;9.016;2022-11-20T01:28:21;96081.47;;;2.19;100.00
61769;BME280;47669;48.712;9.016;2022-11-20T01:30:46;96081.03;;;2.15;100.00
61769;BME280;47669;48.712;9.016;2022-11-20T01:33:12;96085.00;;;1.88;100.00
61769;BME280;47669;48.712;9.016;2022-11-20T01:35:37;96079.78;;;2.11;100.00
61769;BME280;47669;48.712;9.016;2022-11-20T01:38:02;96083.41;;;1.87;100.00
61769;BME280;47669;48.712;9.016;2022-11-20T01:40:27;96072.97;;;2.10;100.00
61769;BME280;47669;48.712;9.016;2022-11-20T01:42:55;96074.28;;;2.06;100.00
61769;BME280;47669;48.712;9.016;2022-11-20T01:48:18;96072.97;;;2.10;100.00
61769;BME280;47669;48.712;9.016;2022-11-20T01:50:44;96074.75;;;1.95;100.00
61769;BME280;47669;48.712;9.016;2022-11-20T01:53:11;96070.59;;;1.63;100.00
61769;BME280;47669;48.712;9.016;2022-11-20T01:55:43;96074.06;;;1.78;100.00
61769;BME280;47669;48.712;9.016;2022-11-20T01:58:09;96072.88;;;1.66;100.00
61769;BME280;47669;48.712;9.016;2022-11-20T02:00:35;96073.13;;;1.48;100.00
61769;BME280;47669;48.712;9.016;2022-11-20T02:03:01;96076.09;;;1.68;100.00
61769;BME280;47669;48.712;9.016;2022-11-20T02:05:31;96073.50;;;1.45;100.00
61769;BME280;47669;48.712;9.016;2022-11-20T02:07:57;96071.34;;;1.25;100.00
61769;BME280;47669;48.712;9.016;2022-11-20T02:10:23;96072.69;;;1.44;100.00
61769;BME280;47669;48.712;9.016;2022-11-20T02:12:49;96072.69;;;1.44;100.00
61769;BME280;47669;48.712;9.016;2022-11-20T02:15:33;96078.69;;;1.45;100.00
61769;BME280;47669;48.712;9.016;2022-11-20T02:17:58;96083.25;;;1.66;100.00
61769;BME280;47669;48.712;9.016;2022-11-20T02:20:24;96075.69;;;1.56;100.00
61769;BME280;47669;48.712;9.016;2022-11-20T02:22:51;96070.09;;;1.44;100.00
61769;BME280;47669;48.712;9.016;2022-11-20T02:25:19;96066.09;;;1.33;100.00
61769;BME280;47669;48.712;9.016;2022-11-20T02:27:44;96068.56;;;1.50;100.00
61769;BME280;47669;48.712;9.016;2022-11-20T02:30:10;96072.69;;;1.44;100.00
61769;BME280;47669;48.712;9.016;2022-11-20T02:32:36;96067.16;;;1.47;100.00
61769;BME280;47669;48.712;9.016;2022-11-20T02:37:45;96070.03;;;1.52;100.00
61769;BME280;47669;48.712;9.016;2022-11-20T02:40:12;96073.44;;;1.53;100.00
61769;BME280;47669;48.712;9.016;2022-11-20T02:42:37;96084.53;;;1.85;100.00
61769;BME280;47669;48.712;9.016;2022-11-20T02:45:03;96079.97;;;1.87;100.00
61769;BME280;47669;48.712;9.016;2022-11-20T02:47:29;96084.50;;;1.70;100.00
61769;BME280;47669;48.712;9.016;2022-11-20T02:49:54;96080.72;;;1.95;100.00
61769;BME280;47669;48.712;9.016;2022-11-20T02:52:19;96080.16;;;2.23;100.00
61769;BME280;47669;48.712;9.016;2022-11-20T02:54:44;96078.72;;;2.21;100.00
61769;BME280;47669;48.712;9.016;2022-11-20T02:57:10;96078.84;;;2.57;100.00
61769;BME280;47669;48.712;9.016;2022-11-20T02:59:35;96073.53;;;2.65;100.00
61769;BME280;47669;48.712;9.016;2022-11-20T03:02:00;96073.44;;;2.73;100.00
61769;BME280;47669;48.712;9.016;2022-11-20T03:04:25;96065.81;;;2.72;100.00
61769;BME280;47669;48.712;9.016;2022-11-20T03:06:50;96066.44;;;2.74;100.00
61769;BME280;47669;48.712;9.016;2022-11-20T03:09:16;96073.09;;;2.76;100.00
61769;BME280;47669;48.712;9.016;2022-11-20T03:11:41;96073.53;;;2.65;100.00
61769;BME280;47669;48.712;9.016;2022-11-20T03:14:06;96077.03;;;2.58;100.00
61769;BME280;47669;48.712;9.016;2022-11-20T03:16:31;96075.41;;;2.56;100.00
61769;BME280;47669;48.712;9.016;2022-11-20T03:18:57;96071.28;;;2.62;100.00
61769;BME280;47669;48.712;9.016;2022-11-20T03:21:23;96069.84;;;2.45;100.00
61769;BME280;47669;48.712;9.016;2022-11-20T03:23:48;96071.19;;;2.41;100.00
61769;BME280;47669;48.712;9.016;2022-11-20T03:26:15;96078.09;;;2.33;100.00
61769;BME280;47669;48.712;9.016;2022-11-20T03:28:41;96075.41;;;2.27;100.00
61769;BME280;47669;48.712;9.016;2022-11-20T03:31:08;96071.47;;;2.31;100.00
61769;BME280;47669;48.712;9.016;2022-11-20T03:33:34;96073.41;;;1.99;100.00
61769;BME280;47669;48.712;9.016;2022-11-20T03:36:06;96070.63;;;2.01;100.00
61769;BME280;47669;48.712;9.016;2022-11-20T03:38:32;96071.44;;;2.01;100.00
61769;BME280;47669;48.712;9.016;2022-11-20T03:40:58;96067.03;;;2.02;100.00
61769;BME280;47669;48.712;9.016;2022-11-20T03:43:23;96068.53;;;1.81;100.00
61769;BME280;47669;48.712;9.016;2022-11-20T03:45:48;96062.72;;;1.79;100.00
61769;BME280;47669;48.712;9.016;2022-11-20T03:48:14;96069.19;;;1.60;100.00
61769;BME280;47669;48.712;9.016;2022-11-20T03:50:39;96076.34;;;1.73;100.00
61769;BME280;47669;48.712;9.016;2022-11-20T03:53:04;96072.19;;;1.87;100.00
61769;BME280;47669;48.712;9.016;2022-11-20T03:55:29;96070.34;;;1.95;100.00
61769;BME280;47669;48.712;9.016;2022-11-20T03:57:54;96069.09;;;1.91;100.00
61769;BME280;47669;48.712;9.016;2022-11-20T04:00:20;96069.75;;;2.08;100.00
61769;BME280;47669;48.712;9.016;2022-11-20T04:02:45;96073.69;;;2.19;100.00
61769;BME280;47669;48.712;9.016;2022-11-20T04:05:10;96065.56;;;2.22;100.00
61769;BME280;47669;48.712;9.016;2022-11-20T04:07:35;96060.25;;;2.15;100.00
61769;BME280;47669;48.712;9.016;2022-11-20T04:10:00;96061.03;;;2.01;100.00
61769;BME280;47669;48.712;9.016;2022-11-20T04:12:26;96063.38;;;2.11;100.00
61769;BME280;47669;48.712;9.016;2022-11-20T04:14:51;96066.06;;;2.17;100.00
61769;BME280;47669;48.712;9.016;2022-11-20T04:17:16;96062.41;;;2.27;100.00
61769;BME280;47669;48.712;9.016;2022-11-20T04:19:41;96054.25;;;2.45;100.00
61769;BME280;47669;48.712;9.016;2022-11-20T04:22:06;96054.06;;;2.31;100.00
61769;BME280;47669;48.712;9.016;2022-11-20T04:24:32;96048.72;;;2.33;100.00
61769;BME280;47669;48.712;9.016;2022-11-20T04:26:57;96050.16;;;2.35;100.00
61769;BME280;47669;48.712;9.016;2022-11-20T04:29:22;96042.44;;;2.57;100.00
61769;BME280;47669;48.712;9.016;2022-11-20T04:31:47;96035.00;;;2.39;100.00
61769;BME280;47669;48.712;9.016;2022-11-20T04:34:13;96036.16;;;2.36;100.00
61769;BME280;47669;48.712;9.016;2022-11-20T04:36:38;96045.38;;;2.39;100.00
61769;BME280;47669;48.712;9.016;2022-11-20T04:39:04;96040.94;;;2.48;100.00
61769;BME280;47669;48.712;9.016;2022-11-20T04:41:31;96036.44;;;2.42;100.00
61769;BME280;47669;48.712;9.016;2022-11-20T04:43:58;96047.72;;;2.64;100.00
61769;BME280;47669;48.712;9.016;2022-11-20T04:46:33;96040.09;;;2.62;100.00
61769;BME280;47669;48.712;9.016;2022-11-20T04:48:59;96040.94;;;2.63;100.00
61769;BME280;47669;48.712;9.016;2022-11-20T04:51:24;96032.28;;;2.62;100.00
61769;BME280;47669;48.712;9.016;2022-11-20T04:53:49;96044.16;;;2.65;100.00
61769;BME280;47669;48.712;9.016;2022-11-20T04:56:15;96045.84;;;2.72;100.00
61769;BME280;47669;48.712;9.016;2022-11-20T04:58:40;96039.53;;;2.82;100.00
61769;BME280;47669;48.712;9.016;2022-11-20T05:01:12;96042.84;;;2.90;100.00
61769;BME280;47669;48.712;9.016;2022-11-20T05:03:41;96046.09;;;2.78;100.00
61769;BME280;47669;48.712;9.016;2022-11-20T05:06:07;96039.69;;;2.95;100.00
61769;BME280;47669;48.712;9.016;2022-11-20T05:08:33;96039.81;;;2.87;100.00
61769;BME280;47669;48.712;9.016;2022-11-20T05:11:08;96034.59;;;3.02;100.00
61769;BME280;47669;48.712;9.016;2022-11-20T05:13:34;96026.78;;;3.02;100.00
61769;BME280;47669;48.712;9.016;2022-11-20T05:16:03;96028.19;;;3.04;100.00
61769;BME280;47669;48.712;9.016;2022-11-20T05:18:28;96034.94;;;2.99;100.00
61769;BME280;47669;48.712;9.016;2022-11-20T05:20:54;96033.25;;;3.27;100.00
61769;BME280;47669;48.712;9.016;2022-11-20T05:23:20;96031.59;;;3.05;100.00
61769;BME280;47669;48.712;9.016;2022-11-20T05:25:45;96026.47;;;3.11;100.00
61769;BME280;47669;48.712;9.016;2022-11-20T05:28:10;96029.94;;;3.19;100.00
61769;BME280;47669;48.712;9.016;2022-11-20T05:30:35;96023.63;;;3.06;100.00
61769;BME280;47669;48.712;9.016;2022-11-20T05:33:00;96028.69;;;3.14;100.00
61769;BME280;47669;48.712;9.016;2022-11-20T05:35:26;96027.50;;;3.17;100.00
61769;BME280;47669;48.712;9.016;2022-11-20T05:37:51;96024.28;;;3.15;100.00
61769;BME280;47669;48.712;9.016;2022-11-20T05:40:16;96017.81;;;3.26;100.00
61769;BME280;47669;48.712;9.016;2022-11-20T05:42:41;96016.81;;;3.27;100.00
61769;BME280;47669;48.712;9.016;2022-11-20T05:45:08;96021.53;;;3.38;100.00
61769;BME280;47669;48.712;9.016;2022-11-20T05:47:33;96021.97;;;3.42;100.00
61769;BME280;47669;48.712;9.016;2022-11-20T05:49:59;96018.47;;;3.34;100.00
61769;BME280;47669;48.712;9.016;2022-11-20T05:52:24;96016.50;;;3.36;100.00
61769;BME280;47669;48.712;9.016;2022-11-20T05:54:52;96019.31;;;3.35;100.00
61769;BME280;47669;48.712;9.016;2022-11-20T05:57:17;96019.00;;;3.45;100.00
61769;BME280;47669;48.712;9.016;2022-11-20T05:59:43;96019.75;;;3.39;100.00
61769;BME280;47669;48.712;9.016;2022-11-20T06:02:08;96015.56;;;3.44;100.00
61769;BME280;47669;48.712;9.016;2022-11-20T06:04:33;96009.88;;;3.34;100.00
61769;BME280;47669;48.712;9.016;2022-11-20T06:06:58;96021.91;;;3.35;100.00
61769;BME280;47669;48.712;9.016;2022-11-20T06:09:23;96023.75;;;3.41;100.00
61769;BME280;47669;48.712;9.016;2022-11-20T06:11:49;96019.91;;;3.37;100.00
61769;BME280;47669;48.712;9.016;2022-11-20T06:14:14;96018.69;;;3.33;100.00
61769;BME280;47669;48.712;9.016;2022-11-20T06:16:39;96023.69;;;3.34;100.00
61769;BME280;47669;48.712;9.016;2022-11-20T06:19:04;96022.66;;;3.29;100.00
61769;BME280;47669;48.712;9.016;2022-11-20T06:21:29;96022.66;;;3.29;100.00
61769;BME280;47669;48.712;9.016;2022-11-20T06:23:55;96023.28;;;3.31;100.00
61769;BME280;47669;48.712;9.016;2022-11-20T06:26:23;96020.28;;;3.34;100.00
61769;BME280;47669;48.712;9.016;2022-11-20T06:28:48;96016.94;;;3.40;100.00
61769;BME280;47669;48.712;9.016;2022-11-20T06:31:15;96019.09;;;3.36;100.00
61769;BME280;47669;48.712;9.016;2022-11-20T06:33:40;96011.94;;;3.39;100.00
61769;BME280;47669;48.712;9.016;2022-11-20T06:36:06;96011.53;;;3.42;100.00
61769;BME280;47669;48.712;9.016;2022-11-20T06:38:31;96021.69;;;3.36;100.00
61769;BME280;47669;48.712;9.016;2022-11-20T06:40:56;96018.75;;;3.40;100.00
61769;BME280;47669;48.712;9.016;2022-11-20T06:43:23;96019.53;;;3.40;100.00
61769;BME280;47669;48.712;9.016;2022-11-20T06:45:52;96024.56;;;3.42;100.00
61769;BME280;47669;48.712;9.016;2022-11-20T06:48:18;96025.25;;;3.29;100.00
61769;BME280;47669;48.712;9.016;2022-11-20T06:50:43;96026.41;;;3.26;100.00
61769;BME280;47669;48.712;9.016;2022-11-20T06:53:08;96021.09;;;3.34;100.00
61769;BME280;47669;48.712;9.016;2022-11-20T06:55:33;96027.56;;;3.39;100.00
61769;BME280;47669;48.712;9.016;2022-11-20T06:57:58;96031.31;;;3.36;100.00
61769;BME280;47669;48.712;9.016;2022-11-20T07:00:24;96023.75;;;3.41;100.00
61769;BME280;47669;48.712;9.016;2022-11-20T07:02:49;96028.25;;;3.54;100.00
61769;BME280;47669;48.712;9.016;2022-11-20T07:05:14;96032.34;;;3.63;100.00
61769;BME280;47669;48.712;9.016;2022-11-20T07:07:40;96031.38;;;3.64;100.00
61769;BME280;47669;48.712;9.016;2022-11-20T07:10:05;96040.75;;;3.59;100.00
61769;BME280;47669;48.712;9.016;2022-11-20T07:12:30;96039.28;;;3.56;100.00
61769;BME280;47669;48.712;9.016;2022-11-20T07:14:55;96037.34;;;3.58;100.00
61769;BME280;47669;48.712;9.016;2022-11-20T07:17:21;96043.66;;;3.70;100.00
61769;BME280;47669;48.712;9.016;2022-11-20T07:19:46;96029.72;;;3.57;100.00
61769;BME280;47669;48.712;9.016;2022-11-20T07:22:12;96032.69;;;3.53;100.00
61769;BME280;47669;48.712;9.016;2022-11-20T07:24:38;96039.13;;;3.58;100.00
61769;BME280;47669;48.712;9.016;2022-11-20T07:27:03;96039.88;;;3.51;100.00
61769;BME280;47669;48.712;9.016;2022-11-20T07:29:29;96038.69;;;3.54;100.00
61769;BME280;47669;48.712;9.016;2022-11-20T07:31:54;96047.50;;;3.53;100.00
61769;BME280;47669;48.712;9.016;2022-11-20T07:34:21;96043.34;;;3.59;100.00
61769;BME280;47669;48.712;9.016;2022-11-20T07:36:46;96051.34;;;3.57;100.00
61769;BME280;47669;48.712;9.016;2022-11-20T07:39:11;96044.41;;;3.64;100.00
61769;BME280;47669;48.712;9.016;2022-11-20T07:41:36;96050.03;;;3.68;100.00
61769;BME280;47669;48.712;9.016;2022-11-20T07:44:01;96036.69;;;3.78;100.00
61769;BME280;47669;48.712;9.016;2022-11-20T07:46:27;96047.34;;;3.83;100.00
61769;BME280;47669;48.712;9.016;2022-11-20T07:48:52;96036.84;;;3.98;100.00
61769;BME280;47669;48.712;9.016;2022-11-20T07:51:17;96040.69;;;4.02;100.00
61769;BME280;47669;48.712;9.016;2022-11-20T07:53:42;96044.38;;;4.14;100.00
61769;BME280;47669;48.712;9.016;2022-11-20T07:56:07;96048.53;;;4.08;100.00
61769;BME280;47669;48.712;9.016;2022-11-20T07:58:33;96050.41;;;4.14;100.00
61769;BME280;47669;48.712;9.016;2022-11-20T08:01:03;96057.22;;;4.15;100.00
61769;BME280;47669;48.712;9.016;2022-11-20T08:03:28;96055.03;;;4.19;100.00
61769;BME280;47669;48.712;9.016;2022-11-20T08:05:54;96064.13;;;4.30;100.00
61769;BME280;47669;48.712;9.016;2022-11-20T08:08:19;96058.72;;;4.31;100.00
61769;BME280;47669;48.712;9.016;2022-11-20T08:10:45;96056.84;;;4.19;100.00
61769;BME280;47669;48.712;9.016;2022-11-20T08:13:10;96063.03;;;4.18;100.00
61769;BME280;47669;48.712;9.016;2022-11-20T08:15:54;96069.09;;;4.25;100.00
61769;BME280;47669;48.712;9.016;2022-11-20T08:18:21;96080.31;;;4.25;100.00
61769;BME280;47669;48.712;9.016;2022-11-20T08:20:46;96064.84;;;4.17;100.00
61769;BME280;47669;48.712;9.016;2022-11-20T08:23:11;96069.91;;;4.25;100.00
61769;BME280;47669;48.712;9.016;2022-11-20T08:25:37;96081.75;;;4.28;100.00
61769;BME280;47669;48.712;9.016;2022-11-20T08:28:06;96075.38;;;4.30;100.00
61769;BME280;47669;48.712;9.016;2022-11-20T08:30:32;96082.34;;;4.30;100.00
61769;BME280;47669;48.712;9.016;2022-11-20T08:33:08;96088.16;;;4.53;100.00
61769;BME280;47669;48.712;9.016;2022-11-20T08:35:34;96075.47;;;4.44;100.00
61769;BME280;47669;48.712;9.016;2022-11-20T08:38:00;96083.94;;;4.59;100.00
61769;BME280;47669;48.712;9.016;2022-11-20T08:40:25;96083.47;;;4.77;100.00
61769;BME280;47669;48.712;9.016;2022-11-20T08:42:51;96081.72;;;4.91;100.00
61769;BME280;47669;48.712;9.016;2022-11-20T08:45:16;96079.06;;;4.84;100.00
61769;BME280;47669;48.712;9.016;2022-11-20T08:47:42;96085.06;;;4.78;100.00
61769;BME280;47669;48.712;9.016;2022-11-20T08:50:08;96085.53;;;4.88;100.00
61769;BME280;47669;48.712;9.016;2022-11-20T08:52:34;96088.50;;;4.85;100.00
61769;BME280;47669;48.712;9.016;2022-11-20T08:54:59;96091.91;;;4.79;100.00
61769;BME280;47669;48.712;9.016;2022-11-20T08:57:24;96084.94;;;4.93;100.00
61769;BME280;47669;48.712;9.016;2022-11-20T08:59:49;96095.25;;;5.08;100.00
61769;BME280;47669;48.712;9.016;2022-11-20T09:02:14;96100.16;;;4.83;100.00
61769;BME280;47669;48.712;9.016;2022-11-20T09:04:40;96102.75;;;4.83;100.00
61769;BME280;47669;48.712;9.016;2022-11-20T09:07:05;96095.69;;;4.77;100.00
61769;BME280;47669;48.712;9.016;2022-11-20T09:09:30;96095.72;;;4.83;100.00
61769;BME280;47669;48.712;9.016;2022-11-20T09:11:56;96097.13;;;4.86;100.00
61769;BME280;47669;48.712;9.016;2022-11-20T09:14:21;96093.38;;;4.95;100.00
61769;BME280;47669;48.712;9.016;2022-11-20T09:16:46;96093.19;;;5.03;100.00
61769;BME280;47669;48.712;9.016;2022-11-20T09:19:11;96089.03;;;5.16;100.00
61769;BME280;47669;48.712;9.016;2022-11-20T09:21:37;96097.63;;;5.03;100.00
61769;BME280;47669;48.712;9.016;2022-11-20T09:24:02;96099.78;;;4.92;100.00
61769;BME280;47669;48.712;9.016;2022-11-20T09:26:27;96104.00;;;4.93;100.00
61769;BME280;47669;48.712;9.016;2022-11-20T09:28:52;96102.34;;;4.79;100.00
61769;BME280;47669;48.712;9.016;2022-11-20T09:31:24;96110.84;;;4.94;100.00
61769;BME280;47669;48.712;9.016;2022-11-20T09:33:50;96108.78;;;4.90;100.00
61769;BME280;47669;48.712;9.016;2022-11-20T09:36:16;96112.16;;;4.84;100.00
61769;BME280;47669;48.712;9.016;2022-11-20T09:38:43;96115.41;;;4.86;100.00
61769;BME280;47669;48.712;9.016;2022-11-20T09:46:25;96112.66;;;5.01;100.00
61769;BME280;47669;48.712;9.016;2022-11-20T09:49:02;96107.56;;;4.86;100.00
61769;BME280;47669;48.712;9.016;2022-11-20T09:54:33;96114.34;;;4.80;100.00
61769;BME280;47669;48.712;9.016;2022-11-20T09:57:02;96113.81;;;4.85;100.00
61769;BME280;47669;48.712;9.016;2022-11-20T09:59:31;96110.94;;;4.73;100.00
61769;BME280;47669;48.712;9.016;2022-11-20T10:01:57;96123.63;;;4.83;100.00
61769;BME280;47669;48.712;9.016;2022-11-20T10:04:24;96118.88;;;4.65;100.00
61769;BME280;47669;48.712;9.016;2022-11-20T10:06:55;96113.03;;;4.56;100.00
61769;BME280;47669;48.712;9.016;2022-11-20T10:09:27;96122.88;;;4.61;100.00
61769;BME280;47669;48.712;9.016;2022-11-20T10:12:03;96130.59;;;4.76;100.00
61769;BME280;47669;48.712;9.016;2022-11-20T10:17:02;96128.97;;;4.74;100.00
61769;BME280;47669;48.712;9.016;2022-11-20T10:22:04;96136.41;;;4.78;100.00
61769;BME280;47669;48.712;9.016;2022-11-20T10:24:44;96133.44;;;4.81;100.00
61769;BME280;47669;48.712;9.016;2022-11-20T10:30:06;96134.69;;;4.91;100.00
61769;BME280;47669;48.712;9.016;2022-11-20T10:32:40;96130.09;;;4.93;100.00
61769;BME280;47669;48.712;9.016;2022-11-20T10:37:33;96143.09;;;4.87;100.00
61769;BME280;47669;48.712;9.016;2022-11-20T10:40:01;96139.75;;;4.65;100.00
61769;BME280;47669;48.712;9.016;2022-11-20T10:42:34;96133.78;;;4.71;100.00
61769;BME280;47669;48.712;9.016;2022-11-20T10:45:02;96130.25;;;4.57;100.00
61769;BME280;47669;48.712;9.016;2022-11-20T10:47:34;96132.50;;;4.60;100.00
61769;BME280;47669;48.712;9.016;2022-11-20T10:50:02;96135.56;;;4.70;100.00
61769;BME280;47669;48.712;9.016;2022-11-20T10:53:30;96126.94;;;4.70;100.00
61769;BME280;47669;48.712;9.016;2022-11-20T10:55:57;96128.28;;;4.94;100.00
61769;BME280;47669;48.712;9.016;2022-11-20T10:58:22;96113.41;;;5.36;100.00
61769;BME280;47669;48.712;9.016;2022-11-20T11:00:50;96118.19;;;5.32;100.00
61769;BME280;47669;48.712;9.016;2022-11-20T11:03:28;96126.06;;;5.39;100.00
61769;BME280;47669;48.712;9.016;2022-11-20T11:05:56;96121.06;;;5.44;100.00
61769;BME280;47669;48.712;9.016;2022-11-20T11:08:24;96117.34;;;5.19;100.00
61769;BME280;47669;48.712;9.016;2022-11-20T11:10:53;96112.47;;;5.02;100.00
61769;BME280;47669;48.712;9.016;2022-11-20T11:13:24;96117.59;;;5.24;100.00
61769;BME280;47669;48.712;9.016;2022-11-20T11:15:49;96109.91;;;5.16;100.00
61769;BME280;47669;48.712;9.016;2022-11-20T11:18:28;96101.59;;;5.47;100.00
61769;BME280;47669;48.712;9.016;2022-11-20T11:20:55;96084.09;;;5.41;100.00
61769;BME280;47669;48.712;9.016;2022-11-20T11:25:59;96066.47;;;5.89;100.00
61769;BME280;47669;48.712;9.016;2022-11-20T11:28:25;96055.41;;;7.13;100.00
61769;BME280;47669;48.712;9.016;2022-11-20T11:30:52;96043.09;;;6.61;100.00
61769;BME280;47669;48.712;9.016;2022-11-20T11:33:24;96043.72;;;6.57;100.00
61769;BME280;47669;48.712;9.016;2022-11-20T11:35:57;96040.47;;;6.68;100.00
61769;BME280;47669;48.712;9.016;2022-11-20T11:40:54;96032.50;;;7.97;100.00
61769;BME280;47669;48.712;9.016;2022-11-20T11:43:49;96025.56;;;7.20;100.00
61769;BME280;47669;48.712;9.016;2022-11-20T11:46:32;96027.81;;;7.10;100.00
61769;BME280;47669;48.712;9.016;2022-11-20T11:49:08;96014.19;;;7.33;100.00
61769;BME280;47669;48.712;9.016;2022-11-20T11:54:22;96008.91;;;7.97;100.00
61769;BME280;47669;48.712;9.016;2022-11-20T11:56:48;96003.16;;;9.05;100.00
61769;BME280;47669;48.712;9.016;2022-11-20T11:59:23;96016.47;;;8.30;100.00
61769;BME280;47669;48.712;9.016;2022-11-20T12:01:53;96005.50;;;7.71;100.00
61769;BME280;47669;48.712;9.016;2022-11-20T12:04:21;96008.25;;;8.01;100.00
61769;BME280;47669;48.712;9.016;2022-11-20T12:06:51;96003.34;;;8.12;100.00
61769;BME280;47669;48.712;9.016;2022-11-20T12:09:23;95998.75;;;7.25;100.00
61769;BME280;47669;48.712;9.016;2022-11-20T12:11:51;95995.41;;;9.11;100.00
61769;BME280;47669;48.712;9.016;2022-11-20T12:14:22;95991.72;;;7.82;100.00
61769;BME280;47669;48.712;9.016;2022-11-20T12:16:52;95991.25;;;7.60;100.00
61769;BME280;47669;48.712;9.016;2022-11-20T12:19:18;95987.94;;;7.72;100.00
61769;BME280;47669;48.712;9.016;2022-11-20T12:21:59;95986.59;;;7.87;100.00
61769;BME280;47669;48.712;9.016;2022-11-20T12:30:12;95979.69;;;7.75;100.00
61769;BME280;47669;48.712;9.016;2022-11-20T12:32:43;95979.72;;;7.68;100.00
61769;BME280;47669;48.712;9.016;2022-11-20T12:51:16;95989.66;;;8.28;100.00
61769;BME280;47669;48.712;9.016;2022-11-20T12:53:50;95975.41;;;8.42;100.00
61769;BME280;47669;48.712;9.016;2022-11-20T12:56:43;95975.56;;;8.66;100.00
61769;BME280;47669;48.712;9.016;2022-11-20T12:59:27;95973.28;;;9.18;100.00
61769;BME280;47669;48.712;9.016;2022-11-20T13:02:05;95969.63;;;10.56;91.75
61769;BME280;47669;48.712;9.016;2022-11-20T13:07:13;95969.91;;;8.51;100.00
61769;BME280;47669;48.712;9.016;2022-11-20T13:09:41;95977.09;;;8.55;100.00
61769;BME280;47669;48.712;9.016;2022-11-20T13:12:24;95980.97;;;7.34;100.00
61769;BME280;47669;48.712;9.016;2022-11-20T13:14:55;95973.28;;;7.07;100.00
61769;BME280;47669;48.712;9.016;2022-11-20T13:19:52;95976.34;;;7.36;100.00
61769;BME280;47669;48.712;9.016;2022-11-20T13:22:24;95969.28;;;7.29;100.00
61769;BME280;47669;48.712;9.016;2022-11-20T13:24:52;95967.41;;;7.43;100.00
61769;BME280;47669;48.712;9.016;2022-11-20T13:27:19;95975.06;;;7.70;100.00
61769;BME280;47669;48.712;9.016;2022-11-20T13:29:46;95968.72;;;7.27;100.00
61769;BME280;47669;48.712;9.016;2022-11-20T13:32:18;95977.84;;;7.75;100.00
61769;BME280;47669;48.712;9.016;2022-11-20T13:34:54;95971.84;;;7.93;100.00
61769;BME280;47669;48.712;9.016;2022-11-20T13:37:27;95978.66;;;8.44;100.00
61769;BME280;47669;48.712;9.016;2022-11-20T13:40:04;95967.81;;;7.40;100.00
61769;BME280;47669;48.712;9.016;2022-11-20T13:42:29;95968.56;;;7.22;100.00
61769;BME280;47669;48.712;9.016;2022-11-20T13:44:55;95962.09;;;6.93;100.00
61769;BME280;47669;48.712;9.016;2022-11-20T13:47:26;95956.38;;;6.64;100.00
61769;BME280;47669;48.712;9.016;2022-11-20T13:49:52;95953.41;;;6.47;100.00
61769;BME280;47669;48.712;9.016;2022-11-20T13:59:57;95952.38;;;6.55;100.00
61769;BME280;47669;48.712;9.016;2022-11-20T14:02:25;95948.25;;;6.27;100.00
61769;BME280;47669;48.712;9.016;2022-11-20T14:04:53;95949.25;;;6.33;100.00
61769;BME280;47669;48.712;9.016;2022-11-20T14:07:20;95942.88;;;6.02;100.00